• Join FlightAware (Why Join?)
  • Login
  • US Flag 
07:33PM EDT


 

Airport Tracker/Info


-or-


 

Live Flight TrackerFlight Track Log ✈ ASQ5858 ✈ 14-Apr-2013 ✈ KORD - KCAK

Flight Track Log - Related Links

Times and Time Zones

All times are in EDT time to prevent confusion due to time zone crossing. See the ASQ5858 flight status page for this flight to view local times or setup timezone preferences in your user account.

Time Position Orientation Groundspeed Altitude Reporting Facility
EDT Latitude Longitude Course Direction KTS MPH feet Rate Location/Type
09:11AM 42.0167 -87.8500 90° East 169 194 3,000  Level Chicago TRACON
09:12AM 42.0167 -87.7667 90° East 239 275 4,700 1,920 Climbing Chicago TRACON
09:13AM 42.0192 -87.5747 89° East 303 349 8,700 2,100 Climbing Chicago Center
09:14AM 41.9357 -87.1661 95° East  Level FlightAware Approximate
09:14AM 42.0019 -87.4558 101° East 318 366 10,900  Level Chicago Center
09:15AM 41.9333 -87.0191 90° East  Level FlightAware Approximate
09:15AM 41.9825 -87.3228 101° East 360 414 11,600  Level Chicago Center
09:16AM 41.9333 -86.8852 90° East  Level FlightAware Approximate
09:16AM 41.9611 -87.1769 101° East 394 453 13,200  Level Chicago Center
09:18AM 41.9447 -87.0275 98° East 405 466 14,900 1,620 Climbing Chicago Center
09:19AM 41.9481 -86.8428 89° East 412 474 16,600 1,380 Climbing Chicago Center
09:20AM 41.9497 -86.6850 89° East 421 484 17,800 1,140 Climbing Chicago Center
09:21AM 41.9531 -86.5344 88° East 433 498 19,000 1,200 Climbing Chicago Center
09:22AM 41.9547 -86.3697 89° East 440 506 20,300 1,200 Climbing Chicago Center
09:23AM 41.9528 -86.2025 91° East 446 513 21,500 1,320 Climbing Chicago Center
09:24AM 41.9208 -86.0406 105° East 452 520 23,100 1,680 Climbing Chicago Center
09:25AM 41.8833 -85.8500 105° East 441 507 25,000 1,560 Climbing Chicago Center
09:26AM 41.8519 -85.6917 105° East 439 505 26,400 1,380 Climbing Chicago Center
09:27AM 41.8208 -85.5336 105° East 437 503 27,900 1,260 Climbing Chicago Center
09:28AM 41.7867 -85.3722 106° East 436 502 29,000 480 Climbing Chicago Center
09:29AM 41.7544 -85.2058 105° East 454 522 29,000  Level Chicago Center
09:30AM 41.7183 -85.0308 105° East 477 549 29,000  Level Chicago Center
09:31AM 41.6808 -84.8531 106° East 492 566 29,000  Level Chicago Center
09:32AM 41.6450 -84.6717 105° East 501 577 29,000  Level Chicago Center
09:33AM 41.6119 -84.4886 104° East 505 581 29,000  Level Chicago Center
09:34AM 41.5772 -84.3056 104° East 509 586 29,000  Level Chicago Center
09:35AM 41.5350 -84.0981 105° East 510 587 29,000  Level Cleveland Center
09:36AM 41.4711 -83.9311 117° Southeast 505 581 29,000 -300 Level Cleveland Center
09:37AM 41.4006 -83.7694 120° Southeast 505 581 28,500 -780 Descending Cleveland Center
09:38AM 41.3336 -83.6253 122° Southeast 505 581 27,500 -960 Descending Cleveland Center
09:39AM 41.2628 -83.4672 121° Southeast 505 581 26,600 -900 Descending Cleveland Center
09:40AM 41.1936 -83.3094 120° Southeast 505 581 25,700 -960 Descending Cleveland Center
09:41AM 41.1144 -83.1297 120° Southeast 505 581 24,700 -1,140 Descending Cleveland Center
09:42AM 41.0447 -82.9783 121° Southeast 505 581 23,500 -1,920 Descending Cleveland Center
09:43AM 40.9789 -82.8358 121° Southeast 473 544 20,900 -2,640 Descending Cleveland Center
09:44AM 40.9147 -82.6906 120° Southeast 463 533 18,300 -2,400 Descending Cleveland Center
09:45AM 40.8611 -82.5433 116° Southeast 454 522 16,200 -2,280 Descending Cleveland Center
09:46AM 40.8450 -82.3892 98° East 429 494 13,800 -2,220 Descending Cleveland Center
09:47AM 40.8286 -82.2350 98° East 424 488 11,800 -1,500 Descending Cleveland Center
09:48AM 40.8158 -82.1003 97° East 391 450 10,800 -1,200 Descending Cleveland Center
09:49AM 40.8028 -81.9819 98° East 349 402 9,400 -900 Descending Cleveland Center
09:50AM 40.7917 -81.8639 97° East 319 367 9,000 -840 Descending Cleveland Center
09:51AM 40.8303 -81.7658 62° Northeast 292 336 7,800 -1,260 Descending Cleveland Center
09:52AM 40.8728 -81.6842 55° Northeast 273 314 6,500 -1,380 Descending Cleveland Center
09:53AM 40.9153 -81.5969 57° Northeast 273 314 5,100 -1,200 Descending Cleveland Center
09:54AM 40.9617 -81.5400 43° Northeast 250 288 4,200 -840 Descending Cleveland Center
09:55AM 41.0014 -81.5019 36° Northeast 220 253 3,500 -900 Descending Cleveland Center
09:56AM 40.9872 -81.4494 110° East 159 183 2,400 -900 Descending Cleveland Center
09:57AM 40.9500 -81.4381 167° South 107 123 1,700 -540 Descending Cleveland Center
09:58AM 40.9228 -81.4239 159° South 107 123 1,400 -300 Descending Cleveland Center